sensor_id;sensor_type;location;lat;lon;timestamp;P1;durP1;ratioP1;P2;durP2;ratioP2
13238;SDS011;6686;51.292;4.166;2022-12-10T00:02:21;67.73;;;30.13;;
13238;SDS011;6686;51.292;4.166;2022-12-10T00:05:07;58.47;;;28.87;;
13238;SDS011;6686;51.292;4.166;2022-12-10T00:07:52;71.53;;;31.57;;
13238;SDS011;6686;51.292;4.166;2022-12-10T00:10:41;81.33;;;32.83;;
13238;SDS011;6686;51.292;4.166;2022-12-10T00:13:27;72.43;;;30.77;;
13238;SDS011;6686;51.292;4.166;2022-12-10T00:16:13;118.80;;;35.03;;
13238;SDS011;6686;51.292;4.166;2022-12-10T00:18:58;91.40;;;30.90;;
13238;SDS011;6686;51.292;4.166;2022-12-10T00:21:44;87.47;;;33.07;;
13238;SDS011;6686;51.292;4.166;2022-12-10T00:24:30;75.20;;;31.17;;
13238;SDS011;6686;51.292;4.166;2022-12-10T00:27:16;67.07;;;32.23;;
13238;SDS011;6686;51.292;4.166;2022-12-10T00:30:02;97.17;;;33.13;;
13238;SDS011;6686;51.292;4.166;2022-12-10T00:32:47;82.23;;;32.70;;
13238;SDS011;6686;51.292;4.166;2022-12-10T00:35:36;74.33;;;31.73;;
13238;SDS011;6686;51.292;4.166;2022-12-10T00:38:21;70.87;;;32.33;;
13238;SDS011;6686;51.292;4.166;2022-12-10T00:41:07;79.83;;;30.87;;
13238;SDS011;6686;51.292;4.166;2022-12-10T00:43:52;68.40;;;29.67;;
13238;SDS011;6686;51.292;4.166;2022-12-10T00:46:39;72.07;;;30.20;;
13238;SDS011;6686;51.292;4.166;2022-12-10T00:49:25;67.10;;;29.83;;
13238;SDS011;6686;51.292;4.166;2022-12-10T00:52:10;72.00;;;31.27;;
13238;SDS011;6686;51.292;4.166;2022-12-10T00:54:56;71.67;;;29.57;;
13238;SDS011;6686;51.292;4.166;2022-12-10T00:57:41;66.60;;;29.73;;
13238;SDS011;6686;51.292;4.166;2022-12-10T01:00:27;60.00;;;28.77;;
13238;SDS011;6686;51.292;4.166;2022-12-10T01:03:13;75.07;;;36.90;;
13238;SDS011;6686;51.292;4.166;2022-12-10T01:06:07;81.00;;;32.87;;
13238;SDS011;6686;51.292;4.166;2022-12-10T01:09:01;71.87;;;38.20;;
13238;SDS011;6686;51.292;4.166;2022-12-10T01:11:46;63.10;;;29.53;;
13238;SDS011;6686;51.292;4.166;2022-12-10T01:14:32;74.90;;;36.97;;
13238;SDS011;6686;51.292;4.166;2022-12-10T01:17:16;59.60;;;29.73;;
13238;SDS011;6686;51.292;4.166;2022-12-10T01:20:03;57.23;;;29.33;;
13238;SDS011;6686;51.292;4.166;2022-12-10T01:22:48;61.20;;;28.33;;
13238;SDS011;6686;51.292;4.166;2022-12-10T01:25:34;61.97;;;27.07;;
13238;SDS011;6686;51.292;4.166;2022-12-10T01:28:19;59.60;;;27.83;;
13238;SDS011;6686;51.292;4.166;2022-12-10T01:31:06;60.27;;;27.60;;
13238;SDS011;6686;51.292;4.166;2022-12-10T01:33:51;68.33;;;27.77;;
13238;SDS011;6686;51.292;4.166;2022-12-10T01:36:38;62.30;;;24.67;;
13238;SDS011;6686;51.292;4.166;2022-12-10T01:39:22;63.53;;;27.97;;
13238;SDS011;6686;51.292;4.166;2022-12-10T01:42:12;54.93;;;26.60;;
13238;SDS011;6686;51.292;4.166;2022-12-10T01:44:58;67.13;;;27.83;;
13238;SDS011;6686;51.292;4.166;2022-12-10T01:47:43;54.43;;;26.50;;
13238;SDS011;6686;51.292;4.166;2022-12-10T01:50:28;58.07;;;25.43;;
13238;SDS011;6686;51.292;4.166;2022-12-10T01:53:14;54.33;;;25.97;;
13238;SDS011;6686;51.292;4.166;2022-12-10T01:55:59;63.57;;;26.50;;
13238;SDS011;6686;51.292;4.166;2022-12-10T01:58:46;61.57;;;26.47;;
13238;SDS011;6686;51.292;4.166;2022-12-10T02:07:34;67.28;;;34.55;;
13238;SDS011;6686;51.292;4.166;2022-12-10T02:10:42;66.53;;;28.47;;
13238;SDS011;6686;51.292;4.166;2022-12-10T02:13:38;84.03;;;27.87;;
13238;SDS011;6686;51.292;4.166;2022-12-10T02:16:21;62.40;;;27.10;;
13238;SDS011;6686;51.292;4.166;2022-12-10T02:19:14;64.40;;;27.10;;
13238;SDS011;6686;51.292;4.166;2022-12-10T02:22:03;63.07;;;26.90;;
13238;SDS011;6686;51.292;4.166;2022-12-10T02:24:48;58.23;;;26.10;;
13238;SDS011;6686;51.292;4.166;2022-12-10T02:30:44;70.90;;;27.33;;
13238;SDS011;6686;51.292;4.166;2022-12-10T02:33:29;77.07;;;36.27;;
13238;SDS011;6686;51.292;4.166;2022-12-10T02:36:15;71.87;;;30.77;;
13238;SDS011;6686;51.292;4.166;2022-12-10T02:39:02;66.73;;;30.10;;
13238;SDS011;6686;51.292;4.166;2022-12-10T02:41:48;83.80;;;37.60;;
13238;SDS011;6686;51.292;4.166;2022-12-10T02:44:33;89.87;;;34.53;;
13238;SDS011;6686;51.292;4.166;2022-12-10T02:47:19;79.77;;;31.00;;
13238;SDS011;6686;51.292;4.166;2022-12-10T02:50:04;72.83;;;29.40;;
13238;SDS011;6686;51.292;4.166;2022-12-10T02:52:50;79.50;;;30.07;;
13238;SDS011;6686;51.292;4.166;2022-12-10T02:55:40;65.07;;;29.40;;
13238;SDS011;6686;51.292;4.166;2022-12-10T02:58:34;74.40;;;29.33;;
13238;SDS011;6686;51.292;4.166;2022-12-10T03:01:29;67.87;;;28.80;;
13238;SDS011;6686;51.292;4.166;2022-12-10T03:04:29;65.90;;;29.43;;
13238;SDS011;6686;51.292;4.166;2022-12-10T03:07:18;67.47;;;29.43;;
13238;SDS011;6686;51.292;4.166;2022-12-10T03:10:06;71.13;;;28.57;;
13238;SDS011;6686;51.292;4.166;2022-12-10T03:12:50;76.17;;;27.80;;
13238;SDS011;6686;51.292;4.166;2022-12-10T03:15:35;74.43;;;29.63;;
13238;SDS011;6686;51.292;4.166;2022-12-10T03:18:21;83.37;;;37.42;;
13238;SDS011;6686;51.292;4.166;2022-12-10T03:21:07;87.17;;;31.63;;
13238;SDS011;6686;51.292;4.166;2022-12-10T03:23:52;67.00;;;30.53;;
13238;SDS011;6686;51.292;4.166;2022-12-10T03:26:38;73.90;;;28.00;;
13238;SDS011;6686;51.292;4.166;2022-12-10T03:29:26;77.50;;;31.30;;
13238;SDS011;6686;51.292;4.166;2022-12-10T03:32:12;72.50;;;29.83;;
13238;SDS011;6686;51.292;4.166;2022-12-10T03:34:58;80.70;;;29.17;;
13238;SDS011;6686;51.292;4.166;2022-12-10T03:37:44;79.90;;;30.73;;
13238;SDS011;6686;51.292;4.166;2022-12-10T03:40:30;90.03;;;29.77;;
13238;SDS011;6686;51.292;4.166;2022-12-10T03:43:15;109.23;;;29.50;;
13238;SDS011;6686;51.292;4.166;2022-12-10T03:46:01;76.77;;;30.30;;
13238;SDS011;6686;51.292;4.166;2022-12-10T03:48:46;75.30;;;29.73;;
13238;SDS011;6686;51.292;4.166;2022-12-10T03:51:32;60.80;;;28.43;;
13238;SDS011;6686;51.292;4.166;2022-12-10T03:54:18;84.67;;;31.80;;
13238;SDS011;6686;51.292;4.166;2022-12-10T03:57:04;72.53;;;31.47;;
13238;SDS011;6686;51.292;4.166;2022-12-10T03:59:50;83.27;;;32.40;;
13238;SDS011;6686;51.292;4.166;2022-12-10T04:02:35;73.70;;;31.63;;
13238;SDS011;6686;51.292;4.166;2022-12-10T04:05:21;80.73;;;31.30;;
13238;SDS011;6686;51.292;4.166;2022-12-10T04:08:07;79.87;;;30.03;;
13238;SDS011;6686;51.292;4.166;2022-12-10T04:10:52;97.63;;;31.60;;
13238;SDS011;6686;51.292;4.166;2022-12-10T04:13:38;81.20;;;31.53;;
13238;SDS011;6686;51.292;4.166;2022-12-10T04:16:42;71.73;;;30.67;;
13238;SDS011;6686;51.292;4.166;2022-12-10T04:19:28;77.20;;;32.47;;
13238;SDS011;6686;51.292;4.166;2022-12-10T04:22:13;77.70;;;31.20;;
13238;SDS011;6686;51.292;4.166;2022-12-10T04:25:17;81.60;;;31.37;;
13238;SDS011;6686;51.292;4.166;2022-12-10T04:28:21;86.73;;;30.67;;
13238;SDS011;6686;51.292;4.166;2022-12-10T04:31:07;88.73;;;30.67;;
13238;SDS011;6686;51.292;4.166;2022-12-10T04:33:53;82.80;;;33.43;;
13238;SDS011;6686;51.292;4.166;2022-12-10T04:36:39;81.80;;;31.97;;
13238;SDS011;6686;51.292;4.166;2022-12-10T04:39:24;105.70;;;33.33;;
13238;SDS011;6686;51.292;4.166;2022-12-10T04:42:10;67.50;;;28.90;;
13238;SDS011;6686;51.292;4.166;2022-12-10T04:44:56;81.50;;;30.40;;
13238;SDS011;6686;51.292;4.166;2022-12-10T04:47:41;82.17;;;30.00;;
13238;SDS011;6686;51.292;4.166;2022-12-10T04:50:27;75.77;;;30.63;;
13238;SDS011;6686;51.292;4.166;2022-12-10T04:53:13;104.13;;;29.90;;
13238;SDS011;6686;51.292;4.166;2022-12-10T04:55:59;75.77;;;27.77;;
13238;SDS011;6686;51.292;4.166;2022-12-10T04:58:44;98.90;;;37.28;;
13238;SDS011;6686;51.292;4.166;2022-12-10T05:01:30;81.97;;;31.93;;
13238;SDS011;6686;51.292;4.166;2022-12-10T05:04:17;83.00;;;30.77;;
13238;SDS011;6686;51.292;4.166;2022-12-10T05:07:02;88.30;;;32.97;;
13238;SDS011;6686;51.292;4.166;2022-12-10T05:09:48;111.10;;;39.88;;
13238;SDS011;6686;51.292;4.166;2022-12-10T05:12:34;93.90;;;33.50;;
13238;SDS011;6686;51.292;4.166;2022-12-10T05:15:20;85.77;;;33.23;;
13238;SDS011;6686;51.292;4.166;2022-12-10T05:18:06;107.55;;;40.42;;
13238;SDS011;6686;51.292;4.166;2022-12-10T05:20:51;115.20;;;36.30;;
13238;SDS011;6686;51.292;4.166;2022-12-10T05:23:38;93.40;;;32.57;;
13238;SDS011;6686;51.292;4.166;2022-12-10T05:26:23;68.93;;;30.80;;
13238;SDS011;6686;51.292;4.166;2022-12-10T05:29:09;85.87;;;37.87;;
13238;SDS011;6686;51.292;4.166;2022-12-10T05:31:55;83.07;;;37.40;;
13238;SDS011;6686;51.292;4.166;2022-12-10T05:34:40;97.85;;;38.97;;
13238;SDS011;6686;51.292;4.166;2022-12-10T05:37:27;74.50;;;32.50;;
13238;SDS011;6686;51.292;4.166;2022-12-10T05:40:12;93.63;;;34.97;;
13238;SDS011;6686;51.292;4.166;2022-12-10T05:42:58;79.07;;;30.97;;
13238;SDS011;6686;51.292;4.166;2022-12-10T05:45:43;95.20;;;31.57;;
13238;SDS011;6686;51.292;4.166;2022-12-10T05:48:29;76.77;;;30.43;;
13238;SDS011;6686;51.292;4.166;2022-12-10T05:51:16;72.50;;;28.47;;
13238;SDS011;6686;51.292;4.166;2022-12-10T05:54:01;69.23;;;28.47;;
13238;SDS011;6686;51.292;4.166;2022-12-10T05:56:46;90.90;;;30.70;;
13238;SDS011;6686;51.292;4.166;2022-12-10T05:59:32;87.47;;;32.07;;
13238;SDS011;6686;51.292;4.166;2022-12-10T06:02:17;90.83;;;31.77;;
13238;SDS011;6686;51.292;4.166;2022-12-10T06:05:03;78.53;;;28.80;;
13238;SDS011;6686;51.292;4.166;2022-12-10T06:07:49;73.17;;;29.10;;
13238;SDS011;6686;51.292;4.166;2022-12-10T06:10:34;81.40;;;28.70;;
13238;SDS011;6686;51.292;4.166;2022-12-10T06:13:20;87.93;;;30.97;;
13238;SDS011;6686;51.292;4.166;2022-12-10T06:16:07;89.50;;;29.07;;
13238;SDS011;6686;51.292;4.166;2022-12-10T06:18:52;89.13;;;36.42;;
13238;SDS011;6686;51.292;4.166;2022-12-10T06:21:38;72.77;;;29.33;;
13238;SDS011;6686;51.292;4.166;2022-12-10T06:24:24;100.20;;;31.93;;
13238;SDS011;6686;51.292;4.166;2022-12-10T06:27:10;79.87;;;30.77;;
13238;SDS011;6686;51.292;4.166;2022-12-10T06:29:55;79.40;;;34.75;;
13238;SDS011;6686;51.292;4.166;2022-12-10T06:32:41;82.30;;;28.63;;
13238;SDS011;6686;51.292;4.166;2022-12-10T06:35:30;86.70;;;29.57;;
13238;SDS011;6686;51.292;4.166;2022-12-10T06:38:15;87.30;;;29.10;;
13238;SDS011;6686;51.292;4.166;2022-12-10T06:41:03;76.33;;;27.93;;
13238;SDS011;6686;51.292;4.166;2022-12-10T06:43:49;85.20;;;29.40;;
13238;SDS011;6686;51.292;4.166;2022-12-10T06:46:35;102.07;;;33.07;;
13238;SDS011;6686;51.292;4.166;2022-12-10T06:49:21;88.53;;;29.53;;
13238;SDS011;6686;51.292;4.166;2022-12-10T06:52:06;83.73;;;29.23;;
13238;SDS011;6686;51.292;4.166;2022-12-10T06:54:53;73.30;;;28.50;;
13238;SDS011;6686;51.292;4.166;2022-12-10T06:57:38;63.47;;;27.00;;
13238;SDS011;6686;51.292;4.166;2022-12-10T07:00:24;70.57;;;27.87;;
13238;SDS011;6686;51.292;4.166;2022-12-10T07:03:09;100.63;;;29.30;;
13238;SDS011;6686;51.292;4.166;2022-12-10T07:05:56;85.73;;;29.60;;
13238;SDS011;6686;51.292;4.166;2022-12-10T07:08:41;87.00;;;29.57;;
13238;SDS011;6686;51.292;4.166;2022-12-10T07:11:27;92.07;;;29.57;;
13238;SDS011;6686;51.292;4.166;2022-12-10T07:14:16;68.10;;;27.93;;
13238;SDS011;6686;51.292;4.166;2022-12-10T07:17:01;74.87;;;28.23;;
13238;SDS011;6686;51.292;4.166;2022-12-10T07:19:47;78.93;;;26.73;;
13238;SDS011;6686;51.292;4.166;2022-12-10T07:22:33;78.93;;;27.90;;
13238;SDS011;6686;51.292;4.166;2022-12-10T07:25:18;78.30;;;28.97;;
13238;SDS011;6686;51.292;4.166;2022-12-10T07:28:04;84.13;;;28.93;;
13238;SDS011;6686;51.292;4.166;2022-12-10T07:30:49;77.57;;;29.73;;
13238;SDS011;6686;51.292;4.166;2022-12-10T07:33:35;81.27;;;30.13;;
13238;SDS011;6686;51.292;4.166;2022-12-10T07:36:21;80.70;;;28.33;;
13238;SDS011;6686;51.292;4.166;2022-12-10T07:39:10;73.53;;;27.53;;
13238;SDS011;6686;51.292;4.166;2022-12-10T07:41:55;79.70;;;26.13;;
13238;SDS011;6686;51.292;4.166;2022-12-10T07:44:42;74.57;;;25.47;;
13238;SDS011;6686;51.292;4.166;2022-12-10T07:47:27;74.67;;;25.13;;
13238;SDS011;6686;51.292;4.166;2022-12-10T07:50:13;68.40;;;24.43;;
13238;SDS011;6686;51.292;4.166;2022-12-10T07:52:59;65.60;;;23.37;;
13238;SDS011;6686;51.292;4.166;2022-12-10T07:55:44;69.37;;;24.67;;
13238;SDS011;6686;51.292;4.166;2022-12-10T07:58:30;71.33;;;23.93;;
13238;SDS011;6686;51.292;4.166;2022-12-10T08:01:18;68.67;;;21.83;;
13238;SDS011;6686;51.292;4.166;2022-12-10T08:04:03;47.50;;;22.40;;
13238;SDS011;6686;51.292;4.166;2022-12-10T08:06:48;54.90;;;22.97;;
13238;SDS011;6686;51.292;4.166;2022-12-10T08:09:33;62.30;;;29.58;;
13238;SDS011;6686;51.292;4.166;2022-12-10T08:12:19;55.47;;;24.93;;
13238;SDS011;6686;51.292;4.166;2022-12-10T08:15:05;55.77;;;24.27;;
13238;SDS011;6686;51.292;4.166;2022-12-10T08:17:51;56.40;;;20.70;;
13238;SDS011;6686;51.292;4.166;2022-12-10T08:20:37;57.67;;;22.77;;
13238;SDS011;6686;51.292;4.166;2022-12-10T08:23:22;59.90;;;23.97;;
13238;SDS011;6686;51.292;4.166;2022-12-10T08:26:09;45.27;;;20.93;;
13238;SDS011;6686;51.292;4.166;2022-12-10T08:28:54;41.63;;;19.20;;
13238;SDS011;6686;51.292;4.166;2022-12-10T08:31:40;63.15;;;27.40;;
13238;SDS011;6686;51.292;4.166;2022-12-10T08:34:25;51.53;;;22.93;;
13238;SDS011;6686;51.292;4.166;2022-12-10T08:37:11;60.07;;;23.40;;
13238;SDS011;6686;51.292;4.166;2022-12-10T08:39:56;56.70;;;22.70;;
13238;SDS011;6686;51.292;4.166;2022-12-10T08:42:42;48.40;;;21.57;;
13238;SDS011;6686;51.292;4.166;2022-12-10T08:45:28;51.60;;;20.80;;
13238;SDS011;6686;51.292;4.166;2022-12-10T08:48:14;47.23;;;20.97;;
13238;SDS011;6686;51.292;4.166;2022-12-10T08:50:59;43.87;;;19.93;;
13238;SDS011;6686;51.292;4.166;2022-12-10T08:53:45;42.53;;;19.53;;
13238;SDS011;6686;51.292;4.166;2022-12-10T08:56:30;70.77;;;21.93;;
13238;SDS011;6686;51.292;4.166;2022-12-10T08:59:16;72.60;;;22.10;;
13238;SDS011;6686;51.292;4.166;2022-12-10T09:02:02;52.50;;;21.60;;
13238;SDS011;6686;51.292;4.166;2022-12-10T09:04:49;51.13;;;19.43;;
13238;SDS011;6686;51.292;4.166;2022-12-10T09:07:33;65.75;;;27.48;;
13238;SDS011;6686;51.292;4.166;2022-12-10T09:10:19;45.80;;;22.17;;
13238;SDS011;6686;51.292;4.166;2022-12-10T09:13:05;52.37;;;20.97;;
13238;SDS011;6686;51.292;4.166;2022-12-10T09:15:51;56.37;;;20.63;;
13238;SDS011;6686;51.292;4.166;2022-12-10T09:18:36;46.03;;;18.47;;
13238;SDS011;6686;51.292;4.166;2022-12-10T09:21:22;42.27;;;21.37;;
13238;SDS011;6686;51.292;4.166;2022-12-10T09:24:08;56.70;;;19.33;;
13238;SDS011;6686;51.292;4.166;2022-12-10T09:26:53;63.33;;;26.00;;
13238;SDS011;6686;51.292;4.166;2022-12-10T09:29:39;50.03;;;21.20;;
13238;SDS011;6686;51.292;4.166;2022-12-10T09:32:25;49.37;;;20.30;;
13238;SDS011;6686;51.292;4.166;2022-12-10T09:35:10;50.97;;;18.90;;
13238;SDS011;6686;51.292;4.166;2022-12-10T09:37:56;45.20;;;20.40;;
13238;SDS011;6686;51.292;4.166;2022-12-10T09:41:05;54.37;;;20.80;;
13238;SDS011;6686;51.292;4.166;2022-12-10T09:49:23;46.87;;;21.23;;
13238;SDS011;6686;51.292;4.166;2022-12-10T09:52:23;53.93;;;21.20;;
13238;SDS011;6686;51.292;4.166;2022-12-10T09:55:10;51.27;;;20.37;;
13238;SDS011;6686;51.292;4.166;2022-12-10T09:57:58;55.10;;;20.63;;
13238;SDS011;6686;51.292;4.166;2022-12-10T10:00:44;56.83;;;20.50;;
13238;SDS011;6686;51.292;4.166;2022-12-10T10:03:38;59.83;;;22.40;;
13238;SDS011;6686;51.292;4.166;2022-12-10T10:06:21;56.73;;;21.30;;
13238;SDS011;6686;51.292;4.166;2022-12-10T10:09:07;66.30;;;27.10;;
13238;SDS011;6686;51.292;4.166;2022-12-10T10:11:52;49.83;;;21.70;;
13238;SDS011;6686;51.292;4.166;2022-12-10T10:14:38;52.67;;;22.70;;
13238;SDS011;6686;51.292;4.166;2022-12-10T10:17:27;46.10;;;19.23;;
13238;SDS011;6686;51.292;4.166;2022-12-10T10:20:13;58.17;;;22.63;;
13238;SDS011;6686;51.292;4.166;2022-12-10T10:22:58;56.07;;;20.53;;
13238;SDS011;6686;51.292;4.166;2022-12-10T10:25:44;51.93;;;22.00;;
13238;SDS011;6686;51.292;4.166;2022-12-10T10:28:29;50.47;;;21.27;;
13238;SDS011;6686;51.292;4.166;2022-12-10T10:31:24;49.27;;;20.77;;
13238;SDS011;6686;51.292;4.166;2022-12-10T10:34:15;55.90;;;22.13;;
13238;SDS011;6686;51.292;4.166;2022-12-10T10:36:58;51.83;;;22.10;;
13238;SDS011;6686;51.292;4.166;2022-12-10T10:39:46;49.57;;;22.00;;
13238;SDS011;6686;51.292;4.166;2022-12-10T10:42:40;55.73;;;21.53;;
13238;SDS011;6686;51.292;4.166;2022-12-10T10:45:41;46.70;;;21.27;;
13238;SDS011;6686;51.292;4.166;2022-12-10T10:48:26;50.43;;;21.63;;
13238;SDS011;6686;51.292;4.166;2022-12-10T10:53:57;57.45;;;27.35;;
13238;SDS011;6686;51.292;4.166;2022-12-10T10:56:43;58.97;;;24.93;;
13238;SDS011;6686;51.292;4.166;2022-12-10T10:59:29;60.78;;;28.10;;
13238;SDS011;6686;51.292;4.166;2022-12-10T11:02:23;50.07;;;23.93;;
13238;SDS011;6686;51.292;4.166;2022-12-10T11:05:22;50.60;;;22.47;;
13238;SDS011;6686;51.292;4.166;2022-12-10T11:08:13;57.53;;;27.03;;
13238;SDS011;6686;51.292;4.166;2022-12-10T11:11:05;56.13;;;23.13;;
13238;SDS011;6686;51.292;4.166;2022-12-10T11:13:49;54.70;;;23.80;;
13238;SDS011;6686;51.292;4.166;2022-12-10T11:16:35;51.83;;;22.47;;
13238;SDS011;6686;51.292;4.166;2022-12-10T11:19:21;60.80;;;27.60;;
13238;SDS011;6686;51.292;4.166;2022-12-10T11:22:22;57.70;;;24.20;;
13238;SDS011;6686;51.292;4.166;2022-12-10T11:25:10;47.50;;;23.07;;
13238;SDS011;6686;51.292;4.166;2022-12-10T11:30:57;53.27;;;22.63;;
13238;SDS011;6686;51.292;4.166;2022-12-10T11:42:12;54.17;;;21.93;;
13238;SDS011;6686;51.292;4.166;2022-12-10T11:45:02;53.80;;;21.27;;
13238;SDS011;6686;51.292;4.166;2022-12-10T11:51:29;59.33;;;27.92;;
13238;SDS011;6686;51.292;4.166;2022-12-10T12:00:49;53.57;;;22.33;;
13238;SDS011;6686;51.292;4.166;2022-12-10T12:03:44;63.05;;;28.83;;
13238;SDS011;6686;51.292;4.166;2022-12-10T12:12:59;58.53;;;23.33;;
13238;SDS011;6686;51.292;4.166;2022-12-10T12:15:50;56.20;;;23.77;;
13238;SDS011;6686;51.292;4.166;2022-12-10T12:18:53;50.97;;;22.07;;
13238;SDS011;6686;51.292;4.166;2022-12-10T12:21:44;54.13;;;24.10;;
13238;SDS011;6686;51.292;4.166;2022-12-10T12:24:37;56.03;;;24.60;;
13238;SDS011;6686;51.292;4.166;2022-12-10T12:30:25;56.90;;;24.37;;
13238;SDS011;6686;51.292;4.166;2022-12-10T12:33:18;57.60;;;24.50;;
13238;SDS011;6686;51.292;4.166;2022-12-10T12:36:10;62.30;;;25.53;;
13238;SDS011;6686;51.292;4.166;2022-12-10T12:39:20;53.30;;;24.83;;
13238;SDS011;6686;51.292;4.166;2022-12-10T12:42:16;60.93;;;24.90;;
13238;SDS011;6686;51.292;4.166;2022-12-10T12:45:32;53.43;;;23.73;;
13238;SDS011;6686;51.292;4.166;2022-12-10T12:53:56;56.83;;;24.70;;
13238;SDS011;6686;51.292;4.166;2022-12-10T13:05:38;58.87;;;25.70;;
13238;SDS011;6686;51.292;4.166;2022-12-10T13:08:25;52.37;;;24.27;;
13238;SDS011;6686;51.292;4.166;2022-12-10T13:23:28;59.40;;;26.60;;
13238;SDS011;6686;51.292;4.166;2022-12-10T13:26:21;56.83;;;25.47;;
13238;SDS011;6686;51.292;4.166;2022-12-10T13:28:55;57.40;;;24.93;;
13238;SDS011;6686;51.292;4.166;2022-12-10T13:31:40;56.87;;;25.20;;
13238;SDS011;6686;51.292;4.166;2022-12-10T13:34:33;63.47;;;24.80;;
13238;SDS011;6686;51.292;4.166;2022-12-10T13:37:28;54.77;;;24.90;;
13238;SDS011;6686;51.292;4.166;2022-12-10T13:40:13;52.17;;;24.30;;
13238;SDS011;6686;51.292;4.166;2022-12-10T13:49:16;55.53;;;25.77;;
13238;SDS011;6686;51.292;4.166;2022-12-10T13:52:02;62.13;;;30.62;;
13238;SDS011;6686;51.292;4.166;2022-12-10T14:06:57;50.67;;;24.03;;
13238;SDS011;6686;51.292;4.166;2022-12-10T14:09:50;49.60;;;23.37;;
13238;SDS011;6686;51.292;4.166;2022-12-10T14:12:35;51.63;;;24.83;;
13238;SDS011;6686;51.292;4.166;2022-12-10T14:15:24;57.33;;;29.40;;
13238;SDS011;6686;51.292;4.166;2022-12-10T14:18:10;53.17;;;26.73;;
13238;SDS011;6686;51.292;4.166;2022-12-10T14:20:55;52.83;;;26.23;;
13238;SDS011;6686;51.292;4.166;2022-12-10T14:23:44;57.43;;;25.70;;
13238;SDS011;6686;51.292;4.166;2022-12-10T14:26:31;57.23;;;24.80;;
13238;SDS011;6686;51.292;4.166;2022-12-10T14:29:19;55.53;;;29.27;;
13238;SDS011;6686;51.292;4.166;2022-12-10T14:32:04;51.00;;;24.17;;
13238;SDS011;6686;51.292;4.166;2022-12-10T14:34:51;52.53;;;23.37;;
13238;SDS011;6686;51.292;4.166;2022-12-10T14:37:36;48.33;;;23.37;;
13238;SDS011;6686;51.292;4.166;2022-12-10T14:40:40;49.90;;;27.85;;
13238;SDS011;6686;51.292;4.166;2022-12-10T14:43:35;49.72;;;27.40;;
13238;SDS011;6686;51.292;4.166;2022-12-10T14:46:22;46.27;;;22.33;;
13238;SDS011;6686;51.292;4.166;2022-12-10T14:49:06;41.50;;;22.53;;
13238;SDS011;6686;51.292;4.166;2022-12-10T14:51:51;43.37;;;21.80;;
13238;SDS011;6686;51.292;4.166;2022-12-10T14:54:37;46.20;;;21.27;;
13238;SDS011;6686;51.292;4.166;2022-12-10T14:57:33;46.47;;;22.03;;
13238;SDS011;6686;51.292;4.166;2022-12-10T15:00:17;50.17;;;23.00;;
13238;SDS011;6686;51.292;4.166;2022-12-10T15:03:01;45.03;;;22.00;;
13238;SDS011;6686;51.292;4.166;2022-12-10T15:05:53;38.07;;;20.70;;
13238;SDS011;6686;51.292;4.166;2022-12-10T15:08:32;46.70;;;21.57;;
13238;SDS011;6686;51.292;4.166;2022-12-10T15:11:19;55.90;;;23.17;;
13238;SDS011;6686;51.292;4.166;2022-12-10T15:14:04;58.43;;;29.87;;
13238;SDS011;6686;51.292;4.166;2022-12-10T15:16:49;56.53;;;29.60;;
13238;SDS011;6686;51.292;4.166;2022-12-10T15:19:35;47.87;;;24.70;;
13238;SDS011;6686;51.292;4.166;2022-12-10T15:22:21;47.37;;;24.13;;
13238;SDS011;6686;51.292;4.166;2022-12-10T15:25:14;43.73;;;22.13;;
13238;SDS011;6686;51.292;4.166;2022-12-10T15:28:30;46.90;;;22.27;;
13238;SDS011;6686;51.292;4.166;2022-12-10T15:33:57;48.77;;;22.80;;
13238;SDS011;6686;51.292;4.166;2022-12-10T15:36:53;39.10;;;20.93;;
13238;SDS011;6686;51.292;4.166;2022-12-10T15:39:37;50.20;;;22.37;;
13238;SDS011;6686;51.292;4.166;2022-12-10T15:42:37;51.53;;;23.07;;
13238;SDS011;6686;51.292;4.166;2022-12-10T15:45:26;41.63;;;21.10;;
13238;SDS011;6686;51.292;4.166;2022-12-10T15:48:12;54.67;;;24.20;;
13238;SDS011;6686;51.292;4.166;2022-12-10T15:50:58;51.83;;;25.07;;
13238;SDS011;6686;51.292;4.166;2022-12-10T15:53:43;49.27;;;24.70;;
13238;SDS011;6686;51.292;4.166;2022-12-10T15:56:29;56.23;;;24.93;;
13238;SDS011;6686;51.292;4.166;2022-12-10T15:59:14;51.27;;;24.53;;
13238;SDS011;6686;51.292;4.166;2022-12-10T16:02:00;49.53;;;22.63;;
13238;SDS011;6686;51.292;4.166;2022-12-10T16:04:45;58.00;;;24.03;;
13238;SDS011;6686;51.292;4.166;2022-12-10T16:07:31;54.63;;;27.80;;
13238;SDS011;6686;51.292;4.166;2022-12-10T16:10:17;58.53;;;24.67;;
13238;SDS011;6686;51.292;4.166;2022-12-10T16:13:04;49.30;;;22.23;;
13238;SDS011;6686;51.292;4.166;2022-12-10T16:15:50;46.70;;;23.47;;
13238;SDS011;6686;51.292;4.166;2022-12-10T16:18:34;48.83;;;21.93;;
13238;SDS011;6686;51.292;4.166;2022-12-10T16:21:20;45.17;;;22.90;;
13238;SDS011;6686;51.292;4.166;2022-12-10T16:24:05;56.13;;;24.07;;
13238;SDS011;6686;51.292;4.166;2022-12-10T16:26:51;60.17;;;28.90;;
13238;SDS011;6686;51.292;4.166;2022-12-10T16:29:37;60.17;;;30.15;;
13238;SDS011;6686;51.292;4.166;2022-12-10T16:32:22;53.77;;;25.63;;
13238;SDS011;6686;51.292;4.166;2022-12-10T16:35:08;56.33;;;24.60;;
13238;SDS011;6686;51.292;4.166;2022-12-10T16:37:53;55.20;;;23.33;;
13238;SDS011;6686;51.292;4.166;2022-12-10T16:40:40;61.03;;;24.07;;
13238;SDS011;6686;51.292;4.166;2022-12-10T16:43:26;51.97;;;23.03;;
13238;SDS011;6686;51.292;4.166;2022-12-10T16:46:11;65.45;;;30.67;;
13238;SDS011;6686;51.292;4.166;2022-12-10T16:48:56;48.93;;;24.53;;
13238;SDS011;6686;51.292;4.166;2022-12-10T16:51:42;55.23;;;24.33;;
13238;SDS011;6686;51.292;4.166;2022-12-10T16:54:27;58.33;;;24.27;;
13238;SDS011;6686;51.292;4.166;2022-12-10T16:57:14;54.10;;;24.33;;
13238;SDS011;6686;51.292;4.166;2022-12-10T16:59:59;60.60;;;24.33;;
13238;SDS011;6686;51.292;4.166;2022-12-10T17:02:44;64.50;;;26.00;;
13238;SDS011;6686;51.292;4.166;2022-12-10T17:05:35;55.50;;;26.53;;
13238;SDS011;6686;51.292;4.166;2022-12-10T17:08:19;61.40;;;24.43;;
13238;SDS011;6686;51.292;4.166;2022-12-10T17:11:10;60.57;;;25.17;;
13238;SDS011;6686;51.292;4.166;2022-12-10T17:17:15;59.83;;;26.60;;
13238;SDS011;6686;51.292;4.166;2022-12-10T17:20:01;58.07;;;26.53;;
13238;SDS011;6686;51.292;4.166;2022-12-10T17:22:47;57.90;;;26.67;;
13238;SDS011;6686;51.292;4.166;2022-12-10T17:25:33;57.10;;;27.07;;
13238;SDS011;6686;51.292;4.166;2022-12-10T17:28:19;53.77;;;26.33;;
13238;SDS011;6686;51.292;4.166;2022-12-10T17:31:04;59.47;;;27.37;;
13238;SDS011;6686;51.292;4.166;2022-12-10T17:33:49;55.33;;;25.63;;
13238;SDS011;6686;51.292;4.166;2022-12-10T17:36:35;51.23;;;25.53;;
13238;SDS011;6686;51.292;4.166;2022-12-10T17:39:21;55.17;;;26.37;;
13238;SDS011;6686;51.292;4.166;2022-12-10T17:42:07;63.23;;;26.70;;
13238;SDS011;6686;51.292;4.166;2022-12-10T17:44:52;67.73;;;27.23;;
13238;SDS011;6686;51.292;4.166;2022-12-10T17:47:37;55.67;;;25.87;;
13238;SDS011;6686;51.292;4.166;2022-12-10T17:50:27;55.37;;;28.23;;
13238;SDS011;6686;51.292;4.166;2022-12-10T17:53:13;61.50;;;27.67;;
13238;SDS011;6686;51.292;4.166;2022-12-10T17:56:01;55.10;;;25.87;;
13238;SDS011;6686;51.292;4.166;2022-12-10T17:58:47;52.77;;;25.87;;
13238;SDS011;6686;51.292;4.166;2022-12-10T18:01:32;52.57;;;26.23;;
13238;SDS011;6686;51.292;4.166;2022-12-10T18:04:18;59.57;;;28.50;;
13238;SDS011;6686;51.292;4.166;2022-12-10T18:07:09;57.90;;;26.90;;
13238;SDS011;6686;51.292;4.166;2022-12-10T18:09:53;57.97;;;25.80;;
13238;SDS011;6686;51.292;4.166;2022-12-10T18:12:38;67.43;;;34.33;;